createdAt,value
2018-07-05T00:01:09.342Z,3.52
2018-07-05T00:03:43.648Z,3.60
2018-07-05T00:06:16.650Z,2.80
2018-07-05T00:08:49.767Z,3.52
2018-07-05T00:11:23.000Z,3.55
2018-07-05T00:13:56.165Z,2.80
2018-07-05T00:16:29.197Z,3.45
2018-07-05T00:19:02.423Z,3.58
2018-07-05T00:21:36.192Z,3.10
2018-07-05T00:24:09.227Z,3.08
2018-07-05T00:26:42.224Z,3.02
2018-07-05T00:29:15.441Z,2.85
2018-07-05T00:31:48.595Z,2.98
2018-07-05T00:34:22.379Z,3.00
2018-07-05T00:36:55.422Z,2.83
2018-07-05T00:39:28.412Z,2.92
2018-07-05T00:42:01.501Z,2.60
2018-07-05T00:44:35.421Z,2.67
2018-07-05T00:47:08.364Z,2.42
2018-07-05T00:49:41.646Z,3.08
2018-07-05T00:52:14.961Z,2.77
2018-07-05T00:54:48.427Z,3.27
2018-07-05T00:57:22.343Z,2.52
2018-07-05T00:59:55.726Z,2.70
2018-07-05T01:02:29.063Z,2.65
2018-07-05T01:05:03.022Z,2.50
2018-07-05T01:07:36.233Z,3.58
2018-07-05T01:10:09.243Z,3.90
2018-07-05T01:12:42.571Z,2.98
2018-07-05T01:15:16.066Z,2.87
2018-07-05T01:17:49.286Z,3.27
2018-07-05T01:20:22.531Z,3.47
2018-07-05T01:22:56.759Z,3.35
2018-07-05T01:25:29.980Z,2.72
2018-07-05T01:28:03.080Z,3.00
2018-07-05T01:30:36.159Z,2.40
2018-07-05T01:33:09.436Z,2.80
2018-07-05T01:35:42.806Z,2.80
2018-07-05T01:38:15.970Z,2.98
2018-07-05T01:40:49.072Z,3.40
2018-07-05T01:43:22.299Z,3.02
2018-07-05T01:45:55.419Z,3.15
2018-07-05T01:48:28.550Z,3.33
2018-07-05T01:51:01.618Z,3.00
2018-07-05T01:53:34.959Z,3.08
2018-07-05T01:56:08.045Z,2.67
2018-07-05T01:58:41.438Z,2.70
2018-07-05T02:01:15.114Z,3.27
2018-07-05T02:03:48.756Z,2.40
2018-07-05T02:06:21.824Z,2.30
2018-07-05T02:08:57.252Z,2.77
2018-07-05T02:11:30.298Z,2.75
2018-07-05T02:14:03.410Z,2.52
2018-07-05T02:16:36.638Z,2.47
2018-07-05T02:19:10.851Z,3.00
2018-07-05T02:21:44.030Z,2.75
2018-07-05T02:24:17.258Z,2.10
2018-07-05T02:26:50.407Z,2.20
2018-07-05T02:29:23.450Z,3.25
2018-07-05T02:31:56.935Z,3.12
2018-07-05T02:34:30.075Z,2.52
2018-07-05T02:37:03.190Z,2.77
2018-07-05T02:39:41.976Z,2.92
2018-07-05T02:42:15.246Z,3.15
2018-07-05T02:44:48.223Z,3.40
2018-07-05T02:47:21.326Z,2.90
2018-07-05T02:49:54.473Z,3.12
2018-07-05T02:52:28.147Z,3.10
2018-07-05T02:55:01.764Z,3.17
2018-07-05T02:57:35.011Z,3.25
2018-07-05T03:00:08.539Z,3.15
2018-07-05T03:02:41.886Z,3.25
2018-07-05T03:05:15.251Z,3.40
2018-07-05T03:07:48.292Z,3.60
2018-07-05T03:10:21.206Z,3.33
2018-07-05T03:12:54.602Z,2.95
2018-07-05T03:15:27.701Z,3.30
2018-07-05T03:18:01.002Z,3.90
2018-07-05T03:20:34.088Z,3.00
2018-07-05T03:23:07.037Z,2.95
2018-07-05T03:25:40.064Z,3.45
2018-07-05T03:28:13.246Z,3.15
2018-07-05T03:30:46.478Z,3.70
2018-07-05T03:33:19.843Z,3.15
2018-07-05T03:35:52.790Z,3.20
2018-07-05T03:38:25.776Z,3.55
2018-07-05T03:40:59.014Z,3.70
2018-07-05T03:43:32.186Z,3.90
2018-07-05T03:46:07.303Z,3.30
2018-07-05T03:48:40.506Z,3.27
2018-07-05T03:51:13.689Z,3.55
2018-07-05T03:53:46.771Z,2.95
2018-07-05T03:56:19.759Z,4.10
2018-07-05T03:58:52.739Z,3.80
2018-07-05T04:01:25.930Z,4.15
2018-07-05T04:03:58.890Z,3.52
2018-07-05T04:06:32.007Z,3.70
2018-07-05T04:09:05.222Z,3.40
2018-07-05T04:11:38.523Z,3.50
2018-07-05T04:14:12.236Z,3.87
2018-07-05T04:16:45.222Z,4.00
2018-07-05T04:19:18.270Z,3.17
2018-07-05T04:21:52.260Z,3.42
2018-07-05T04:24:25.323Z,4.25
2018-07-05T04:26:58.866Z,3.50
2018-07-05T04:29:32.486Z,4.50
2018-07-05T04:32:05.553Z,4.33
2018-07-05T04:34:38.798Z,5.15
2018-07-05T04:37:12.417Z,5.45
2018-07-05T04:39:45.495Z,6.22
2018-07-05T04:42:18.672Z,6.33
2018-07-05T04:44:51.622Z,6.60
2018-07-05T04:47:25.621Z,7.33
2018-07-05T04:49:58.773Z,6.67
2018-07-05T04:52:31.807Z,7.92
2018-07-05T04:55:06.175Z,6.87
2018-07-05T04:57:39.354Z,7.95
2018-07-05T05:00:12.470Z,6.60
2018-07-05T05:02:46.448Z,7.03
2018-07-05T05:05:19.871Z,6.80
2018-07-05T05:07:55.090Z,6.37
2018-07-05T05:10:28.196Z,6.25
2018-07-05T05:13:01.370Z,6.92
2018-07-05T05:15:34.464Z,6.40
2018-07-05T05:18:08.286Z,6.65
2018-07-05T05:20:41.889Z,6.17
2018-07-05T05:23:14.922Z,6.15
2018-07-05T05:25:48.147Z,6.80
2018-07-05T05:28:23.315Z,5.75
2018-07-05T05:30:56.306Z,4.75
2018-07-05T05:33:30.053Z,4.60
2018-07-05T05:36:03.111Z,5.85
2018-07-05T05:38:36.217Z,4.90
2018-07-05T05:41:10.222Z,5.42
2018-07-05T05:43:43.610Z,6.10
2018-07-05T05:46:16.781Z,6.65
2018-07-05T05:48:49.796Z,5.85
2018-07-05T05:51:22.827Z,5.75
2018-07-05T05:53:57.167Z,5.22
2018-07-05T05:56:30.260Z,5.30
2018-07-05T05:59:04.224Z,5.08
2018-07-05T06:01:37.201Z,6.12
2018-07-05T06:04:10.448Z,5.90
2018-07-05T06:06:43.703Z,5.40
2018-07-05T06:09:16.722Z,6.75
2018-07-05T06:11:49.929Z,5.47
2018-07-05T06:14:23.465Z,4.67
2018-07-05T06:16:56.848Z,4.10
2018-07-05T06:19:29.837Z,5.40
2018-07-05T06:22:03.195Z,4.45
2018-07-05T06:24:37.086Z,4.40
2018-07-05T06:27:10.194Z,4.30
2018-07-05T06:29:43.370Z,4.75
2018-07-05T06:32:16.531Z,4.25
2018-07-05T06:34:49.658Z,4.70
2018-07-05T06:37:23.616Z,4.37
2018-07-05T06:39:56.759Z,4.35
2018-07-05T06:42:29.892Z,4.22
2018-07-05T06:45:02.948Z,5.17
2018-07-05T06:47:36.176Z,4.08
2018-07-05T06:50:09.771Z,4.62
2018-07-05T06:52:42.843Z,3.67
2018-07-05T06:55:16.062Z,3.75
2018-07-05T06:57:49.296Z,2.83
2018-07-05T07:00:22.511Z,3.40
2018-07-05T07:02:55.420Z,3.70
2018-07-05T07:05:28.947Z,3.47
2018-07-05T07:08:02.130Z,2.98
2018-07-05T07:10:35.327Z,3.00
2018-07-05T07:13:08.510Z,3.15
2018-07-05T07:15:41.843Z,2.98
2018-07-05T07:18:14.827Z,2.77
2018-07-05T07:20:47.806Z,3.25
2018-07-05T07:23:20.904Z,2.60
2018-07-05T07:25:54.025Z,2.72
2018-07-05T07:28:27.243Z,2.62
2018-07-05T07:31:00.365Z,2.65
2018-07-05T07:33:33.549Z,3.42
2018-07-05T07:36:06.658Z,2.87
2018-07-05T07:38:39.782Z,3.22
2018-07-05T07:41:12.899Z,3.47
2018-07-05T07:43:39.802Z,3.15
2018-07-05T07:46:07.088Z,3.27
2018-07-05T07:48:34.003Z,3.55
2018-07-05T07:51:00.920Z,3.27
2018-07-05T07:53:28.562Z,2.85
2018-07-05T07:55:55.482Z,2.98
2018-07-05T07:58:22.525Z,3.20
2018-07-05T08:00:49.540Z,2.80
2018-07-05T08:03:16.470Z,2.98
2018-07-05T08:05:43.381Z,3.12
2018-07-05T08:08:10.340Z,3.00
2018-07-05T08:10:37.186Z,3.08
2018-07-05T08:13:04.131Z,2.42
2018-07-05T08:15:31.033Z,2.80
2018-07-05T08:17:57.925Z,2.98
2018-07-05T08:20:24.849Z,3.47
2018-07-05T08:22:51.741Z,2.60
2018-07-05T08:25:18.678Z,3.20
2018-07-05T08:27:45.745Z,3.67
2018-07-05T08:30:13.546Z,3.00
2018-07-05T08:32:40.483Z,3.15
2018-07-05T08:35:07.407Z,2.92
2018-07-05T08:37:34.306Z,3.00
2018-07-05T08:40:01.206Z,2.45
2018-07-05T08:42:29.212Z,2.80
2018-07-05T08:44:56.239Z,3.27
2018-07-05T08:47:23.189Z,2.83
2018-07-05T08:49:50.084Z,2.85
2018-07-05T08:52:17.007Z,2.92
2018-07-05T08:54:43.976Z,2.70
2018-07-05T08:57:10.879Z,2.95
2018-07-05T08:59:37.786Z,2.52
2018-07-05T09:02:05.082Z,2.50
2018-07-05T09:04:32.249Z,2.80
2018-07-05T09:06:59.204Z,2.15
2018-07-05T09:09:26.174Z,2.58
2018-07-05T09:11:53.498Z,2.20
2018-07-05T09:14:20.700Z,2.40
2018-07-05T09:16:47.626Z,2.50
2018-07-05T09:19:14.547Z,2.47
2018-07-05T09:21:41.665Z,2.62
2018-07-05T09:24:08.582Z,2.40
2018-07-05T09:26:36.696Z,2.65
2018-07-05T09:29:03.995Z,2.35
2018-07-05T09:31:30.920Z,2.08
2018-07-05T09:33:57.810Z,2.60
2018-07-05T09:36:24.881Z,2.85
2018-07-05T09:38:51.819Z,2.37
2018-07-05T09:41:18.727Z,2.70
2018-07-05T09:43:45.812Z,2.40
2018-07-05T09:46:12.740Z,2.27
2018-07-05T09:48:39.778Z,2.72
2018-07-05T09:51:06.777Z,2.55
2018-07-05T09:53:33.710Z,2.30
2018-07-05T09:56:00.720Z,2.70
2018-07-05T09:58:27.715Z,2.80
2018-07-05T10:00:54.639Z,2.40
2018-07-05T10:03:22.496Z,2.83
2018-07-05T10:05:49.367Z,3.12
2018-07-05T10:08:17.699Z,3.10
2018-07-05T10:10:45.955Z,3.30
2018-07-05T10:13:12.985Z,3.22
2018-07-05T10:15:40.007Z,3.37
2018-07-05T10:18:06.974Z,3.85
2018-07-05T10:20:33.917Z,3.50
2018-07-05T10:23:01.663Z,2.80
2018-07-05T10:25:28.582Z,3.05
2018-07-05T10:27:55.493Z,2.87
2018-07-05T10:30:29.878Z,3.05
2018-07-05T10:33:02.960Z,2.98
2018-07-05T10:35:29.914Z,2.85
2018-07-05T10:37:58.830Z,3.00
2018-07-05T10:40:31.971Z,2.77
2018-07-05T10:43:05.144Z,3.87
2018-07-05T10:45:38.406Z,4.22
2018-07-05T10:48:11.383Z,3.02
2018-07-05T10:50:44.610Z,3.47
2018-07-05T10:53:17.659Z,3.83
2018-07-05T10:55:50.679Z,3.40
2018-07-05T10:58:23.725Z,3.70
2018-07-05T11:00:56.893Z,3.98
2018-07-05T11:03:30.126Z,4.40
2018-07-05T11:06:03.151Z,3.95
2018-07-05T11:08:36.222Z,4.00
2018-07-05T11:11:09.400Z,4.33
2018-07-05T11:13:42.458Z,4.17
2018-07-05T11:16:15.678Z,3.27
2018-07-05T11:18:48.839Z,3.40
2018-07-05T11:21:21.976Z,4.20
2018-07-05T11:23:55.560Z,5.62
2018-07-05T11:26:28.706Z,3.58
2018-07-05T11:29:01.762Z,4.60
2018-07-05T11:31:34.835Z,4.87
2018-07-05T11:34:07.731Z,3.45
2018-07-05T11:36:40.747Z,3.27
2018-07-05T11:39:13.820Z,3.60
2018-07-05T11:41:47.216Z,3.47
2018-07-05T11:44:20.306Z,3.00
2018-07-05T11:46:53.571Z,2.60
2018-07-05T11:49:26.728Z,2.00
2018-07-05T11:51:59.993Z,1.22
2018-07-05T11:54:33.116Z,2.50
2018-07-05T11:57:06.102Z,2.52
2018-07-05T11:59:39.049Z,2.42
2018-07-05T12:02:12.119Z,2.25
2018-07-05T12:04:45.322Z,2.55
2018-07-05T12:07:18.482Z,1.77
2018-07-05T12:09:51.535Z,1.22
2018-07-05T12:12:24.569Z,1.50
2018-07-05T12:14:57.842Z,1.20
2018-07-05T12:17:30.807Z,1.27
2018-07-05T12:20:03.874Z,1.65
2018-07-05T12:22:36.921Z,1.40
2018-07-05T12:25:09.942Z,1.25
2018-07-05T12:27:42.901Z,1.35
2018-07-05T12:30:15.978Z,1.10
2018-07-05T12:32:49.154Z,1.22
2018-07-05T12:35:22.805Z,1.05
2018-07-05T12:37:55.734Z,1.00
2018-07-05T12:40:28.902Z,1.60
2018-07-05T12:43:02.155Z,1.42
2018-07-05T12:45:35.483Z,1.87
2018-07-05T12:48:08.486Z,1.25
2018-07-05T12:50:41.547Z,1.30
2018-07-05T12:53:14.577Z,1.32
2018-07-05T12:55:48.811Z,1.37
2018-07-05T12:58:22.842Z,1.75
2018-07-05T13:00:55.948Z,1.72
2018-07-05T13:03:29.062Z,2.08
2018-07-05T13:06:02.147Z,1.80
2018-07-05T13:08:35.489Z,2.20
2018-07-05T13:11:08.693Z,2.10
2018-07-05T13:13:41.880Z,2.35
2018-07-05T13:16:14.875Z,1.80
2018-07-05T13:18:47.892Z,2.08
2018-07-05T13:21:20.989Z,2.10
2018-07-05T13:23:53.987Z,1.75
2018-07-05T13:26:27.234Z,1.85
2018-07-05T13:29:00.335Z,1.72
2018-07-05T13:31:33.531Z,1.98
2018-07-05T13:34:06.646Z,1.85
2018-07-05T13:36:39.711Z,2.22
2018-07-05T13:39:12.811Z,1.90
2018-07-05T13:41:45.986Z,2.10
2018-07-05T13:44:19.150Z,1.65
2018-07-05T13:46:52.313Z,1.50
2018-07-05T13:49:25.554Z,2.17
2018-07-05T13:51:58.712Z,1.70
2018-07-05T13:54:31.794Z,1.90
2018-07-05T13:57:04.787Z,2.02
2018-07-05T13:59:38.064Z,1.90
2018-07-05T14:02:11.645Z,2.17
2018-07-05T14:04:45.428Z,2.40
2018-07-05T14:07:18.602Z,2.27
2018-07-05T14:09:51.930Z,2.00
2018-07-05T14:12:25.178Z,2.83
2018-07-05T15:37:01.517Z,2.70
2018-07-05T15:39:34.470Z,2.60
2018-07-05T15:42:08.069Z,2.33
2018-07-05T15:44:41.304Z,2.27
2018-07-05T15:47:14.798Z,2.45
2018-07-05T15:49:48.026Z,2.50
2018-07-05T15:52:21.212Z,3.02
2018-07-05T15:54:57.864Z,2.35
2018-07-05T15:57:31.053Z,2.58
2018-07-05T16:00:04.034Z,3.08
2018-07-05T16:02:37.494Z,2.30
2018-07-05T16:05:10.726Z,2.30
2018-07-05T16:07:44.143Z,2.37
2018-07-05T16:10:17.530Z,2.77
2018-07-05T16:12:51.007Z,2.55
2018-07-05T16:15:24.514Z,2.40
2018-07-05T16:17:58.092Z,2.08
2018-07-05T16:20:31.490Z,2.45
2018-07-05T16:23:04.459Z,1.65
2018-07-05T16:25:37.550Z,2.17
2018-07-05T16:28:11.300Z,2.10
2018-07-05T16:30:44.483Z,2.10
2018-07-05T16:33:17.808Z,2.60
2018-07-05T16:35:51.704Z,2.00
2018-07-05T16:38:25.147Z,3.00
2018-07-05T16:40:58.450Z,2.25
2018-07-05T16:43:31.487Z,2.92
2018-07-05T16:46:04.660Z,2.35
2018-07-05T16:48:37.790Z,2.35
2018-07-05T16:51:10.753Z,2.72
2018-07-05T16:53:44.048Z,4.12
2018-07-05T16:56:17.655Z,14.98
2018-07-05T16:58:51.126Z,2.45
2018-07-05T17:01:24.459Z,2.83
2018-07-05T17:03:58.434Z,3.10
2018-07-05T17:06:31.727Z,2.17
2018-07-05T17:09:04.982Z,2.80
2018-07-05T17:11:38.263Z,2.40
2018-07-05T17:14:11.514Z,2.17
2018-07-05T17:16:45.033Z,2.12
2018-07-05T17:19:18.285Z,3.95
2018-07-05T17:21:52.590Z,3.17
2018-07-05T17:24:25.904Z,2.50
2018-07-05T17:26:59.551Z,2.40
2018-07-05T17:29:32.757Z,2.45
2018-07-05T17:32:06.368Z,2.25
2018-07-05T17:34:39.595Z,2.52
2018-07-05T17:37:12.757Z,2.15
2018-07-05T17:39:46.207Z,2.30
2018-07-05T17:42:19.843Z,2.58
2018-07-05T17:44:53.124Z,2.17
2018-07-05T17:47:26.346Z,2.45
2018-07-05T17:49:59.591Z,2.10
2018-07-05T17:52:32.973Z,2.12
2018-07-05T17:55:06.167Z,1.52
2018-07-05T17:57:40.004Z,2.15
2018-07-05T18:00:14.771Z,1.80
2018-07-05T18:02:47.920Z,1.80
2018-07-05T18:05:21.678Z,2.10
2018-07-05T18:07:54.774Z,1.95
2018-07-05T18:10:28.059Z,2.25
2018-07-05T18:13:01.500Z,1.92
2018-07-05T18:15:34.851Z,1.40
2018-07-05T18:18:08.075Z,2.08
2018-07-05T18:20:41.194Z,2.10
2018-07-05T18:23:14.655Z,1.85
2018-07-05T18:25:48.049Z,2.08
2018-07-05T18:28:21.184Z,2.90
2018-07-05T18:30:54.443Z,3.10
2018-07-05T18:33:27.851Z,4.30
2018-07-05T18:36:01.273Z,3.72
2018-07-05T18:38:34.766Z,4.90
2018-07-05T18:41:08.589Z,5.22
2018-07-05T18:43:41.924Z,4.97
2018-07-05T18:46:15.349Z,4.87
2018-07-05T18:48:48.840Z,5.35
2018-07-05T18:51:22.359Z,4.83
2018-07-05T18:53:55.669Z,6.10
2018-07-05T18:56:28.938Z,5.17
2018-07-05T18:59:02.176Z,4.95
2018-07-05T19:01:35.238Z,5.03
2018-07-05T19:04:08.690Z,5.20
2018-07-05T19:06:41.722Z,4.37
2018-07-05T19:09:15.078Z,5.05
2018-07-05T19:11:48.542Z,4.35
2018-07-05T19:14:21.689Z,3.92
2018-07-05T19:16:55.132Z,4.70
2018-07-05T19:19:28.824Z,5.10
2018-07-05T19:22:02.195Z,4.60
2018-07-05T19:24:35.371Z,4.92
2018-07-05T19:27:08.754Z,4.28
2018-07-05T19:29:41.825Z,4.80
2018-07-05T19:32:15.115Z,4.00
2018-07-05T19:34:48.215Z,5.35
2018-07-05T19:37:21.355Z,4.37
2018-07-05T19:39:54.471Z,4.53
2018-07-05T19:42:27.660Z,4.53
2018-07-05T19:45:00.849Z,4.35
2018-07-05T19:47:33.984Z,4.47
2018-07-05T19:50:07.145Z,4.67
2018-07-05T19:52:40.174Z,4.42
2018-07-05T19:55:13.334Z,3.98
2018-07-05T19:57:46.365Z,5.10
2018-07-05T20:00:19.391Z,4.70
2018-07-05T20:02:52.598Z,4.80
2018-07-05T20:05:25.686Z,4.33
2018-07-05T20:07:58.936Z,5.72
2018-07-05T20:10:32.022Z,5.15
2018-07-05T20:13:05.157Z,4.97
2018-07-05T20:15:38.212Z,5.85
2018-07-05T20:18:11.351Z,5.35
2018-07-05T20:20:44.454Z,4.55
2018-07-05T20:23:17.657Z,5.45
2018-07-05T20:25:50.744Z,4.53
2018-07-05T20:28:23.914Z,5.28
2018-07-05T20:30:57.019Z,4.60
2018-07-05T20:33:30.023Z,5.65
2018-07-05T20:36:03.123Z,5.40
2018-07-05T20:38:36.138Z,5.67
2018-07-05T20:41:09.060Z,4.85
2018-07-05T20:43:42.012Z,4.83
2018-07-05T20:46:15.274Z,3.52
2018-07-05T20:48:48.399Z,2.98
2018-07-05T20:51:21.561Z,2.62
2018-07-05T20:53:54.783Z,2.42
2018-07-05T20:56:27.799Z,2.12
2018-07-05T20:59:00.975Z,2.33
2018-07-05T21:01:34.166Z,2.50
2018-07-05T21:04:07.235Z,1.75
2018-07-05T21:06:40.513Z,1.72
2018-07-05T21:09:13.850Z,1.80
2018-07-05T21:11:47.005Z,1.62
2018-07-05T21:14:20.131Z,1.92
2018-07-05T21:16:53.096Z,1.67
2018-07-05T21:19:26.354Z,1.65
2018-07-05T21:21:59.439Z,1.90
2018-07-05T21:24:32.544Z,1.32
2018-07-05T21:27:05.727Z,1.80
2018-07-05T21:29:38.688Z,1.95
2018-07-05T21:32:11.752Z,2.80
2018-07-05T21:34:45.170Z,2.58
2018-07-05T21:37:18.410Z,2.35
2018-07-05T21:39:51.726Z,2.40
2018-07-05T21:42:24.718Z,2.45
2018-07-05T21:44:58.087Z,2.62
2018-07-05T21:47:31.118Z,2.37
2018-07-05T21:50:04.426Z,2.15
2018-07-05T21:52:37.850Z,2.98
2018-07-05T21:55:10.943Z,2.65
2018-07-05T21:57:44.048Z,2.60
2018-07-05T22:00:17.166Z,2.65
2018-07-05T22:02:50.220Z,2.95
2018-07-05T22:05:23.206Z,2.75
2018-07-05T22:07:56.601Z,3.12
2018-07-05T22:10:29.656Z,2.22
2018-07-05T22:13:02.869Z,2.83
2018-07-05T22:15:36.165Z,3.75
2018-07-05T22:18:15.118Z,4.97
2018-07-05T22:20:54.161Z,4.05
2018-07-05T22:23:32.977Z,4.05
2018-07-05T22:26:11.999Z,3.80
2018-07-05T22:28:51.046Z,4.15
2018-07-05T22:31:30.459Z,3.52
2018-07-05T22:34:03.880Z,2.85
2018-07-05T22:36:37.027Z,2.60
2018-07-05T22:39:09.946Z,2.52
2018-07-05T22:41:43.428Z,2.95
2018-07-05T22:44:16.409Z,3.08
2018-07-05T22:46:49.516Z,2.62
2018-07-05T22:49:22.483Z,2.42
2018-07-05T22:51:55.788Z,2.33
2018-07-05T22:54:29.015Z,2.27
2018-07-05T22:57:02.135Z,2.50
2018-07-05T22:59:35.303Z,2.98
2018-07-05T23:02:08.369Z,2.58
2018-07-05T23:04:42.003Z,2.22
2018-07-05T23:07:15.094Z,2.40
2018-07-05T23:09:48.189Z,2.47
2018-07-05T23:12:21.317Z,2.08
2018-07-05T23:14:54.773Z,2.80
2018-07-05T23:17:27.842Z,2.35
2018-07-05T23:20:00.944Z,2.30
2018-07-05T23:22:34.057Z,2.27
2018-07-05T23:25:07.112Z,2.67
2018-07-05T23:27:40.310Z,2.20
2018-07-05T23:30:13.530Z,2.58
2018-07-05T23:32:46.522Z,2.37
2018-07-05T23:35:19.527Z,2.10
2018-07-05T23:37:52.515Z,3.00
2018-07-05T23:40:25.528Z,1.95
2018-07-05T23:42:58.671Z,2.20
2018-07-05T23:45:31.848Z,2.25
2018-07-05T23:48:04.988Z,2.85
2018-07-05T23:50:39.822Z,2.95
2018-07-05T23:53:12.962Z,2.87
2018-07-05T23:55:46.174Z,2.58
2018-07-05T23:58:19.214Z,2.98
